createdAt,value
2018-06-15T00:00:02.565Z,79.40
2018-06-15T00:02:32.549Z,79.10
2018-06-15T00:05:01.312Z,79.00
2018-06-15T00:07:30.298Z,78.90
2018-06-15T00:09:59.824Z,78.90
2018-06-15T00:12:28.634Z,78.70
2018-06-15T00:14:57.312Z,79.00
2018-06-15T00:17:26.180Z,79.10
2018-06-15T00:19:55.201Z,79.30
2018-06-15T00:22:23.854Z,79.50
2018-06-15T00:24:52.661Z,79.70
2018-06-15T00:27:21.340Z,80.00
2018-06-15T00:29:50.321Z,80.20
2018-06-15T00:32:19.235Z,80.20
2018-06-15T00:34:47.917Z,80.20
2018-06-15T00:37:16.694Z,79.90
2018-06-15T00:39:45.442Z,79.90
2018-06-15T00:42:14.228Z,80.20
2018-06-15T00:44:43.206Z,80.30
2018-06-15T00:47:11.895Z,80.40
2018-06-15T00:49:40.749Z,80.60
2018-06-15T00:52:09.720Z,80.50
2018-06-15T00:54:38.719Z,80.70
2018-06-15T00:57:18.336Z,81.10
2018-06-15T00:59:47.272Z,80.80
2018-06-15T01:02:16.290Z,80.90
2018-06-15T01:04:45.124Z,81.00
2018-06-15T01:07:13.936Z,81.00
2018-06-15T01:09:42.719Z,80.80
2018-06-15T01:12:11.650Z,80.60
2018-06-15T01:14:40.606Z,80.70
2018-06-15T01:17:09.506Z,81.50
2018-06-15T01:19:38.160Z,81.10
2018-06-15T01:22:07.280Z,81.10
2018-06-15T01:24:36.216Z,81.00
2018-06-15T01:27:05.370Z,80.70
2018-06-15T01:29:34.271Z,80.50
2018-06-15T01:32:03.156Z,80.40
2018-06-15T01:34:32.040Z,80.10
2018-06-15T01:37:00.673Z,80.00
2018-06-15T01:41:57.721Z,80.00
2018-06-15T01:44:26.545Z,80.00
2018-06-15T01:46:55.297Z,80.10
2018-06-15T01:49:24.236Z,80.50
2018-06-15T01:51:53.152Z,80.60
2018-06-15T01:54:21.831Z,80.60
2018-06-15T01:56:50.663Z,80.90
2018-06-15T01:59:19.392Z,81.10
2018-06-15T02:01:48.210Z,81.00
2018-06-15T02:07:08.160Z,81.30
2018-06-15T02:09:36.894Z,81.10
2018-06-15T02:12:05.818Z,81.20
2018-06-15T02:14:34.678Z,81.10
2018-06-15T02:17:03.606Z,81.20
2018-06-15T02:19:32.758Z,81.00
2018-06-15T02:22:02.268Z,81.10
2018-06-15T02:24:31.164Z,81.00
2018-06-15T02:27:00.091Z,81.10
2018-06-15T02:29:28.816Z,81.30
2018-06-15T02:31:57.605Z,81.40
2018-06-15T02:34:26.395Z,81.40
2018-06-15T02:36:55.047Z,81.10
2018-06-15T02:39:23.899Z,81.10
2018-06-15T02:41:52.724Z,81.80
2018-06-15T02:46:50.350Z,81.60
2018-06-15T02:49:19.103Z,80.70
2018-06-15T02:51:48.351Z,81.20
2018-06-15T02:54:17.340Z,81.20
2018-06-15T02:56:46.338Z,80.90
2018-06-15T02:59:15.127Z,81.00
2018-06-15T03:01:43.927Z,80.70
2018-06-15T03:04:12.640Z,80.90
2018-06-15T03:06:41.509Z,81.10
2018-06-15T03:09:10.293Z,81.20
2018-06-15T03:11:39.081Z,81.30
2018-06-15T03:14:08.077Z,81.50
2018-06-15T03:16:37.182Z,81.60
2018-06-15T03:19:06.107Z,81.70
2018-06-15T03:21:34.935Z,81.80
2018-06-15T03:24:04.039Z,81.70
2018-06-15T03:26:33.887Z,81.60
2018-06-15T03:29:02.651Z,81.50
2018-06-15T03:31:31.467Z,81.80
2018-06-15T03:34:00.298Z,81.30
2018-06-15T03:36:29.016Z,81.40
2018-06-15T03:38:57.804Z,81.50
2018-06-15T03:41:26.751Z,81.50
2018-06-15T03:43:55.446Z,81.90
2018-06-15T03:46:24.117Z,81.70
2018-06-15T03:48:52.820Z,82.00
2018-06-15T03:51:21.436Z,82.00
2018-06-15T03:53:50.200Z,81.90
2018-06-15T03:56:18.994Z,81.50
2018-06-15T03:58:47.735Z,81.60
2018-06-15T04:03:44.816Z,81.90
2018-06-15T04:06:13.598Z,82.20
2018-06-15T04:08:42.209Z,82.20
2018-06-15T04:11:11.127Z,82.00
2018-06-15T04:13:39.982Z,81.30
2018-06-15T04:16:08.876Z,81.00
2018-06-15T04:18:37.661Z,81.30
2018-06-15T04:21:06.486Z,81.00
2018-06-15T04:23:35.212Z,80.50
2018-06-15T04:26:04.014Z,80.50
2018-06-15T04:28:32.752Z,80.10
2018-06-15T04:31:01.414Z,80.20
2018-06-15T04:33:30.156Z,80.10
2018-06-15T04:35:58.858Z,79.80
2018-06-15T04:38:27.601Z,79.60
2018-06-15T04:40:56.421Z,79.00
2018-06-15T04:43:25.155Z,78.80
2018-06-15T04:45:53.803Z,78.40
2018-06-15T04:48:22.795Z,77.70
2018-06-15T04:50:51.439Z,77.30
2018-06-15T04:53:20.176Z,76.80
2018-06-15T04:55:48.843Z,76.70
2018-06-15T04:58:17.475Z,76.60
2018-06-15T05:00:46.195Z,75.70
2018-06-15T05:03:15.551Z,76.30
2018-06-15T05:05:45.190Z,75.70
2018-06-15T05:08:14.090Z,75.40
2018-06-15T05:10:42.832Z,75.80
2018-06-15T05:13:11.598Z,75.00
2018-06-15T05:15:41.782Z,74.40
2018-06-15T05:18:10.784Z,74.10
2018-06-15T05:20:39.875Z,73.20
2018-06-15T05:23:08.972Z,72.80
2018-06-15T05:25:37.811Z,72.50
2018-06-15T05:30:34.948Z,71.90
2018-06-15T05:33:03.824Z,71.50
2018-06-15T05:35:32.549Z,71.80
2018-06-15T05:38:01.331Z,71.90
2018-06-15T05:40:30.186Z,72.00
2018-06-15T05:42:58.974Z,71.50
2018-06-15T05:45:27.865Z,71.30
2018-06-15T05:47:56.655Z,71.40
2018-06-15T05:50:25.340Z,70.50
2018-06-15T05:52:54.080Z,70.80
2018-06-15T05:55:22.856Z,69.60
2018-06-15T05:57:51.807Z,69.50
2018-06-15T06:00:20.805Z,69.90
2018-06-15T06:02:49.693Z,69.50
2018-06-15T06:05:18.662Z,69.70
2018-06-15T06:07:47.317Z,69.60
2018-06-15T06:10:15.967Z,69.30
2018-06-15T06:12:44.608Z,69.00
2018-06-15T06:15:13.432Z,68.20
2018-06-15T06:17:42.630Z,68.30
2018-06-15T06:20:11.680Z,67.70
2018-06-15T06:22:40.421Z,67.40
2018-06-15T06:25:09.148Z,67.60
2018-06-15T06:27:37.933Z,66.70
2018-06-15T06:30:06.631Z,66.00
2018-06-15T06:32:35.436Z,66.10
2018-06-15T06:35:04.260Z,66.10
2018-06-15T06:37:33.808Z,65.80
2018-06-15T06:40:02.458Z,65.70
2018-06-15T06:42:31.239Z,65.60
2018-06-15T06:45:00.000Z,66.00
2018-06-15T06:47:28.691Z,65.80
2018-06-15T06:49:57.496Z,66.00
2018-06-15T06:52:26.228Z,65.50
2018-06-15T06:54:55.117Z,65.50
2018-06-15T06:57:23.839Z,64.80
2018-06-15T06:59:52.684Z,64.70
2018-06-15T07:02:21.752Z,64.60
2018-06-15T07:04:50.538Z,64.10
2018-06-15T07:07:19.329Z,64.70
2018-06-15T07:09:48.528Z,62.60
2018-06-15T07:12:17.268Z,62.90
2018-06-15T07:14:45.944Z,62.40
2018-06-15T07:17:15.030Z,62.20
2018-06-15T07:19:43.812Z,62.30
2018-06-15T07:22:12.705Z,63.50
2018-06-15T07:24:41.577Z,63.40
2018-06-15T07:27:10.608Z,62.60
2018-06-15T07:32:08.172Z,62.20
2018-06-15T07:34:36.954Z,61.30
2018-06-15T07:37:05.984Z,62.80
2018-06-15T07:39:35.323Z,62.50
2018-06-15T07:42:04.523Z,63.70
2018-06-15T07:44:33.924Z,63.60
2018-06-15T07:47:03.123Z,63.10
2018-06-15T07:49:32.015Z,63.50
2018-06-15T07:52:00.912Z,64.20
2018-06-15T07:54:29.568Z,63.70
2018-06-15T07:56:58.704Z,63.80
2018-06-15T07:59:27.618Z,63.80
2018-06-15T08:01:56.576Z,63.60
2018-06-15T08:04:25.942Z,62.30
2018-06-15T08:06:54.662Z,61.60
2018-06-15T08:09:23.766Z,61.50
2018-06-15T08:11:52.788Z,61.70
2018-06-15T08:14:21.745Z,61.80
2018-06-15T08:16:50.439Z,61.50
2018-06-15T08:19:19.257Z,61.30
2018-06-15T08:21:48.053Z,61.50
2018-06-15T08:24:16.900Z,60.90
2018-06-15T08:26:45.689Z,60.20
2018-06-15T08:29:14.471Z,60.10
2018-06-15T08:31:43.241Z,60.20
2018-06-15T08:34:12.207Z,60.60
2018-06-15T08:36:40.947Z,60.70
2018-06-15T08:39:11.474Z,61.30
2018-06-15T08:41:40.496Z,60.60
2018-06-15T08:44:09.356Z,60.60
2018-06-15T08:46:38.450Z,61.50
2018-06-15T08:49:07.355Z,60.60
2018-06-15T08:51:36.032Z,59.80
2018-06-15T08:54:04.854Z,59.80
2018-06-15T08:56:33.641Z,60.60
2018-06-15T08:59:02.373Z,59.40
2018-06-15T09:01:31.108Z,59.90
2018-06-15T09:03:59.854Z,59.50
2018-06-15T09:06:28.555Z,59.30
2018-06-15T09:08:57.190Z,58.70
2018-06-15T09:11:25.847Z,58.70
2018-06-15T09:13:54.637Z,59.30
2018-06-15T09:16:23.445Z,59.70
2018-06-15T09:18:52.230Z,59.70
2018-06-15T09:21:20.997Z,59.40
2018-06-15T09:23:49.778Z,58.40
2018-06-15T09:26:18.521Z,58.40
2018-06-15T09:28:47.328Z,59.00
2018-06-15T09:31:15.959Z,58.00
2018-06-15T09:33:44.643Z,58.70
2018-06-15T09:36:13.331Z,57.90
2018-06-15T09:38:42.309Z,57.30
2018-06-15T09:41:11.082Z,57.50
2018-06-15T09:43:40.148Z,57.20
2018-06-15T09:46:08.749Z,57.20
2018-06-15T09:48:41.383Z,57.50
2018-06-15T09:51:10.600Z,57.30
2018-06-15T09:53:39.543Z,57.10
2018-06-15T09:56:08.332Z,56.70
2018-06-15T09:58:37.444Z,57.80
2018-06-15T10:01:11.372Z,58.50
2018-06-15T10:03:40.677Z,58.20
2018-06-15T10:06:09.350Z,58.40
2018-06-15T10:08:38.068Z,57.60
2018-06-15T10:13:35.616Z,58.40
2018-06-15T10:16:04.497Z,58.10
2018-06-15T10:18:33.268Z,57.80
2018-06-15T10:21:02.188Z,57.50
2018-06-15T10:23:30.960Z,57.40
2018-06-15T10:25:59.660Z,56.40
2018-06-15T10:28:28.653Z,56.40
2018-06-15T10:30:57.507Z,56.70
2018-06-15T10:33:26.512Z,57.30
2018-06-15T10:35:55.457Z,56.50
2018-06-15T10:38:24.151Z,56.60
2018-06-15T10:40:52.981Z,55.90
2018-06-15T10:43:21.700Z,55.90
2018-06-15T10:45:50.455Z,55.60
2018-06-15T10:48:19.175Z,55.70
2018-06-15T10:50:47.930Z,54.90
2018-06-15T10:53:16.716Z,55.70
2018-06-15T10:55:45.473Z,55.50
2018-06-15T10:58:14.434Z,55.30
2018-06-15T11:00:43.044Z,55.00
2018-06-15T11:03:11.669Z,54.30
2018-06-15T11:05:40.296Z,54.20
2018-06-15T11:08:09.048Z,54.40
2018-06-15T11:10:37.758Z,55.20
2018-06-15T11:13:06.550Z,51.90
2018-06-15T11:15:35.411Z,53.00
2018-06-15T11:18:04.203Z,54.80
2018-06-15T11:20:32.893Z,54.40
2018-06-15T11:23:01.585Z,54.40
2018-06-15T11:25:30.257Z,54.50
2018-06-15T11:27:59.035Z,53.00
2018-06-15T11:30:27.688Z,53.10
2018-06-15T11:32:56.482Z,52.70
2018-06-15T11:35:25.113Z,52.60
2018-06-15T11:37:53.956Z,52.60
2018-06-15T11:40:22.719Z,52.40
2018-06-15T11:42:51.528Z,50.80
2018-06-15T11:45:20.316Z,50.70
2018-06-15T11:47:49.080Z,50.60
2018-06-15T11:50:17.734Z,51.20
2018-06-15T11:52:46.418Z,51.80
2018-06-15T11:55:15.191Z,51.50
2018-06-15T11:57:43.843Z,51.90
2018-06-15T12:00:12.746Z,51.50
2018-06-15T12:02:41.477Z,50.40
2018-06-15T12:05:10.155Z,51.20
2018-06-15T12:07:38.979Z,51.80
2018-06-15T12:10:07.827Z,53.50
2018-06-15T12:12:36.628Z,53.50
2018-06-15T12:15:05.396Z,53.90
2018-06-15T12:17:34.057Z,54.60
2018-06-15T12:20:02.737Z,54.10
2018-06-15T12:22:31.501Z,53.70
2018-06-15T12:25:00.223Z,53.70
2018-06-15T12:27:28.984Z,53.40
2018-06-15T12:29:57.720Z,53.70
2018-06-15T12:32:26.443Z,53.60
2018-06-15T12:34:55.108Z,53.80
2018-06-15T12:37:23.908Z,53.10
2018-06-15T12:39:52.650Z,52.60
2018-06-15T12:42:21.483Z,53.10
2018-06-15T12:44:50.443Z,53.20
2018-06-15T12:47:19.220Z,53.30
2018-06-15T12:49:47.908Z,52.60
2018-06-15T12:52:16.631Z,53.00
2018-06-15T12:54:45.414Z,52.50
2018-06-15T12:57:14.173Z,52.60
2018-06-15T12:59:42.853Z,52.60
2018-06-15T13:02:11.551Z,52.70
2018-06-15T13:04:40.234Z,52.90
2018-06-15T13:07:09.010Z,53.40
2018-06-15T13:09:37.844Z,53.60
2018-06-15T13:12:06.575Z,53.90
2018-06-15T13:14:35.296Z,53.60
2018-06-15T13:17:03.961Z,53.80
2018-06-15T13:19:32.775Z,53.50
2018-06-15T13:22:01.508Z,53.60
2018-06-15T13:24:34.916Z,53.90
2018-06-15T13:27:03.904Z,54.00
2018-06-15T13:29:32.865Z,54.60
2018-06-15T13:32:01.553Z,54.40
2018-06-15T13:34:30.319Z,54.60
2018-06-15T13:36:59.150Z,54.70
2018-06-15T13:39:27.793Z,54.60
2018-06-15T13:41:56.555Z,55.00
2018-06-15T13:44:25.489Z,55.40
2018-06-15T13:46:54.159Z,55.70
2018-06-15T13:49:22.877Z,55.70
2018-06-15T13:51:51.702Z,56.00
2018-06-15T13:54:20.325Z,56.20
2018-06-15T13:56:49.145Z,56.30
2018-06-15T13:59:17.913Z,56.10
2018-06-15T14:01:46.758Z,56.40
2018-06-15T14:04:15.471Z,56.40
2018-06-15T14:06:44.152Z,56.40
2018-06-15T14:09:12.955Z,56.30
2018-06-15T14:11:41.718Z,56.20
2018-06-15T14:14:10.402Z,56.50
2018-06-15T14:16:39.023Z,56.70
2018-06-15T14:19:07.733Z,56.90
2018-06-15T14:21:36.425Z,57.00
2018-06-15T14:24:05.093Z,57.20
2018-06-15T14:26:33.851Z,57.10
2018-06-15T14:29:02.587Z,57.00
2018-06-15T14:31:31.406Z,56.70
2018-06-15T14:34:00.061Z,56.60
2018-06-15T14:36:28.788Z,56.50
2018-06-15T14:38:57.441Z,56.50
2018-06-15T14:41:26.157Z,56.80
2018-06-15T14:43:54.908Z,56.50
2018-06-15T14:46:23.589Z,56.80
2018-06-15T14:48:52.313Z,56.60
2018-06-15T14:51:21.091Z,56.10
2018-06-15T14:53:49.777Z,56.20
2018-06-15T14:56:18.412Z,55.90
2018-06-15T14:58:47.116Z,55.50
2018-06-15T15:01:15.813Z,55.10
2018-06-15T15:03:44.468Z,55.40
2018-06-15T15:06:13.313Z,55.60
2018-06-15T15:08:42.043Z,55.40
2018-06-15T15:11:10.857Z,55.10
2018-06-15T15:13:39.461Z,55.20
2018-06-15T15:16:08.179Z,55.30
2018-06-15T15:18:36.948Z,55.40
2018-06-15T15:21:05.855Z,55.30
2018-06-15T15:23:34.660Z,55.50
2018-06-15T15:26:03.372Z,55.60
2018-06-15T15:28:32.011Z,55.90
2018-06-15T15:31:00.779Z,55.90
2018-06-15T15:33:29.534Z,55.30
2018-06-15T15:35:58.210Z,56.00
2018-06-15T15:38:26.919Z,56.20
2018-06-15T15:40:55.710Z,55.70
2018-06-15T15:43:24.420Z,56.00
2018-06-15T15:45:54.080Z,56.00
2018-06-15T15:48:22.748Z,56.20
2018-06-15T15:50:51.488Z,56.50
2018-06-15T15:53:20.144Z,56.70
2018-06-15T15:55:49.028Z,56.90
2018-06-15T15:58:17.676Z,56.60
2018-06-15T16:00:46.383Z,56.40
2018-06-15T16:03:15.143Z,56.40
2018-06-15T16:05:43.890Z,55.90
2018-06-15T16:08:12.556Z,55.80
2018-06-15T16:13:09.901Z,56.00
2018-06-15T16:15:38.855Z,56.40
2018-06-15T16:18:07.642Z,55.90
2018-06-15T16:20:36.619Z,55.80
2018-06-15T16:23:06.023Z,56.30
2018-06-15T16:25:34.773Z,56.30
2018-06-15T16:28:03.512Z,56.20
2018-06-15T16:30:32.406Z,56.10
2018-06-15T16:33:01.199Z,56.10
2018-06-15T16:35:29.955Z,56.40
2018-06-15T16:37:58.773Z,56.60
2018-06-15T16:40:27.662Z,56.50
2018-06-15T16:42:56.418Z,56.80
2018-06-15T16:45:25.342Z,56.90
2018-06-15T16:47:54.253Z,56.80
2018-06-15T16:50:22.940Z,57.10
2018-06-15T16:52:51.628Z,57.40
2018-06-15T16:55:20.332Z,57.60
2018-06-15T16:57:49.037Z,57.70
2018-06-15T17:00:18.001Z,57.80
2018-06-15T17:02:46.866Z,57.50
2018-06-15T17:05:15.758Z,57.40
2018-06-15T17:07:45.432Z,57.30
2018-06-15T17:10:14.283Z,57.50
2018-06-15T17:12:42.910Z,57.80
2018-06-15T17:15:11.733Z,58.20
2018-06-15T17:17:40.661Z,58.50
2018-06-15T17:20:09.499Z,58.40
2018-06-15T17:22:38.477Z,58.50
2018-06-15T17:25:07.253Z,58.40
2018-06-15T17:27:35.918Z,58.50
2018-06-15T17:30:04.733Z,58.60
2018-06-15T17:32:33.618Z,59.00
2018-06-15T17:35:02.442Z,58.90
2018-06-15T17:37:31.760Z,59.20
2018-06-15T17:40:00.440Z,59.40
2018-06-15T17:42:29.548Z,59.20
2018-06-15T17:44:58.665Z,59.30
2018-06-15T17:47:27.523Z,59.40
2018-06-15T17:49:56.277Z,59.30
2018-06-15T17:52:25.230Z,59.70
2018-06-15T17:54:54.244Z,59.80
2018-06-15T17:57:23.188Z,59.90
2018-06-15T17:59:52.000Z,59.80
2018-06-15T18:02:20.972Z,59.70
2018-06-15T18:04:49.947Z,59.80
2018-06-15T18:07:18.754Z,59.80
2018-06-15T18:09:47.415Z,60.00
2018-06-15T18:12:16.141Z,60.00
2018-06-15T18:14:45.122Z,60.00
2018-06-15T18:17:13.973Z,60.20
2018-06-15T18:19:42.801Z,60.40
2018-06-15T18:22:12.034Z,60.50
2018-06-15T18:24:40.725Z,60.90
2018-06-15T18:27:09.578Z,60.80
2018-06-15T18:29:38.426Z,60.10
2018-06-15T18:32:07.174Z,60.30
2018-06-15T18:34:36.047Z,60.50
2018-06-15T18:37:04.938Z,60.60
2018-06-15T18:39:33.645Z,61.00
2018-06-15T18:42:02.560Z,61.50
2018-06-15T18:44:31.509Z,61.90
2018-06-15T18:47:00.169Z,62.20
2018-06-15T18:49:28.985Z,62.40
2018-06-15T18:51:57.793Z,63.00
2018-06-15T18:54:26.679Z,63.20
2018-06-15T18:56:55.528Z,63.50
2018-06-15T18:59:24.241Z,63.50
2018-06-15T19:01:53.161Z,63.70
2018-06-15T19:04:22.022Z,64.00
2018-06-15T19:06:51.023Z,63.90
2018-06-15T19:09:19.861Z,64.30
2018-06-15T19:11:48.527Z,64.50
2018-06-15T19:14:17.164Z,64.70
2018-06-15T19:16:45.877Z,65.60
2018-06-15T19:19:14.491Z,65.00
2018-06-15T19:21:43.159Z,65.20
2018-06-15T19:24:12.230Z,65.50
2018-06-15T19:26:41.052Z,65.50
2018-06-15T19:29:10.002Z,65.50
2018-06-15T19:31:38.831Z,65.80
2018-06-15T19:34:08.005Z,65.70
2018-06-15T19:36:37.331Z,65.50
2018-06-15T19:39:07.438Z,66.40
2018-06-15T19:41:36.531Z,66.40
2018-06-15T19:44:05.395Z,66.30
2018-06-15T19:46:34.400Z,66.50
2018-06-15T19:49:03.297Z,66.70
2018-06-15T19:51:31.978Z,66.80
2018-06-15T19:54:00.826Z,67.40
2018-06-15T19:56:29.761Z,67.50
2018-06-15T19:58:58.584Z,67.50
2018-06-15T20:01:27.442Z,67.70
2018-06-15T20:03:56.435Z,68.50
2018-06-15T20:06:25.062Z,67.70
2018-06-15T20:08:53.780Z,67.60
2018-06-15T20:11:22.724Z,67.50
2018-06-15T20:13:51.346Z,67.70
2018-06-15T20:16:20.095Z,68.10
2018-06-15T20:18:49.065Z,68.10
2018-06-15T20:21:17.956Z,67.70
2018-06-15T20:23:46.616Z,67.80
2018-06-15T20:26:15.326Z,68.10
2018-06-15T20:28:43.964Z,68.20
2018-06-15T20:31:12.612Z,68.10
2018-06-15T20:33:41.417Z,68.20
2018-06-15T20:36:10.349Z,68.40
2018-06-15T20:38:39.169Z,68.30
2018-06-15T20:41:08.187Z,68.30
2018-06-15T20:43:37.151Z,68.30
2018-06-15T20:46:06.080Z,68.10
2018-06-15T20:48:34.821Z,68.20
2018-06-15T20:51:03.547Z,68.20
2018-06-15T20:53:32.314Z,68.30
2018-06-15T20:56:01.206Z,68.50
2018-06-15T20:58:30.021Z,68.50
2018-06-15T21:00:58.985Z,70.50
2018-06-15T21:03:27.777Z,71.30
2018-06-15T21:05:56.614Z,71.50
2018-06-15T21:08:25.291Z,72.10
2018-06-15T21:10:54.261Z,72.30
2018-06-15T21:13:23.165Z,72.40
2018-06-15T21:15:51.871Z,73.10
2018-06-15T21:18:20.840Z,73.60
2018-06-15T21:20:49.705Z,72.40
2018-06-15T21:23:18.596Z,72.20
2018-06-15T21:25:47.401Z,71.80
2018-06-15T21:28:16.483Z,71.90
2018-06-15T21:30:46.524Z,72.10
2018-06-15T21:33:15.189Z,72.30
2018-06-15T21:35:44.280Z,72.40
2018-06-15T21:38:13.079Z,72.40
2018-06-15T21:40:41.912Z,72.20
2018-06-15T21:43:11.083Z,72.10
2018-06-15T21:45:40.000Z,72.10
2018-06-15T21:48:08.769Z,72.50
2018-06-15T21:50:37.553Z,72.40
2018-06-15T21:53:06.314Z,72.00
2018-06-15T21:55:35.205Z,72.10
2018-06-15T21:58:03.941Z,72.10
2018-06-15T22:00:32.609Z,72.20
2018-06-15T22:03:01.391Z,72.00
2018-06-15T22:05:30.448Z,72.10
2018-06-15T22:07:59.252Z,72.00
2018-06-15T22:10:28.145Z,72.50
2018-06-15T22:12:57.168Z,72.70
2018-06-15T22:15:26.122Z,72.90
2018-06-15T22:17:54.759Z,73.00
2018-06-15T22:20:23.525Z,73.10
2018-06-15T22:22:52.395Z,72.90
2018-06-15T22:25:21.299Z,72.90
2018-06-15T22:27:50.304Z,72.90
2018-06-15T22:30:19.171Z,73.10
2018-06-15T22:32:48.196Z,73.40
2018-06-15T22:35:16.877Z,73.40
2018-06-15T22:37:45.930Z,73.60
2018-06-15T22:40:15.537Z,73.40
2018-06-15T22:42:44.450Z,73.50
2018-06-15T22:45:13.337Z,74.10
2018-06-15T22:47:42.237Z,74.00
2018-06-15T22:50:10.916Z,74.10
2018-06-15T22:52:39.536Z,74.20
2018-06-15T22:55:08.394Z,74.50
2018-06-15T22:57:37.011Z,74.70
2018-06-15T23:00:06.254Z,74.60
2018-06-15T23:02:34.890Z,74.80
2018-06-15T23:05:03.648Z,74.60
2018-06-15T23:07:32.529Z,74.30
2018-06-15T23:10:01.228Z,74.50
2018-06-15T23:12:29.989Z,74.70
2018-06-15T23:14:59.013Z,75.00
2018-06-15T23:17:27.796Z,75.20
2018-06-15T23:19:56.586Z,75.70
2018-06-15T23:22:25.585Z,75.80
2018-06-15T23:24:54.453Z,76.00
2018-06-15T23:27:23.068Z,76.10
2018-06-15T23:29:51.871Z,76.00
2018-06-15T23:32:20.661Z,76.30
2018-06-15T23:34:49.624Z,76.40
2018-06-15T23:37:18.445Z,76.40
2018-06-15T23:39:47.306Z,76.50
2018-06-15T23:42:16.197Z,75.90
2018-06-15T23:44:45.168Z,76.00
2018-06-15T23:47:14.217Z,76.40
2018-06-15T23:49:43.075Z,76.10
2018-06-15T23:52:11.863Z,75.80
2018-06-15T23:54:40.579Z,75.50
2018-06-15T23:57:09.284Z,75.30
2018-06-15T23:59:38.230Z,75.30
